Time;durP1;ratioP1;P1;durP2;ratioP2;P2;SDS_P1;SDS_P2;PMS_P1;PMS_P2;Temp;Humidity;BMP_temperature;BMP_pressure;BME280_temperature;BME280_humidity;BME280_pressure;Samples;Min_cycle;Max_cycle;Signal;HPM_P1;HPM_P2
2022/10/23 00:00:02;;;;;;;4.45;1.98;;;12.20;99.90;;;;;;6198136;28;20046;-81
2022/10/23 00:03:04;;;;;;;12.20;2.75;;;12.20;99.90;;;;;;6207384;28;20082;-82
2022/10/23 00:06:07;;;;;;;8.88;2.60;;;12.10;99.90;;;;;;6205986;28;20053;-82
2022/10/23 00:09:12;;;;;;;14.07;2.67;;;12.10;99.90;;;;;;6205098;28;20046;-82
2022/10/23 00:12:14;;;;;;;8.27;1.80;;;12.10;99.90;;;;;;6205577;28;20060;-81
2022/10/23 00:15:17;;;;;;;9.35;2.33;;;12.10;99.90;;;;;;6205188;28;20050;-81
2022/10/23 00:18:19;;;;;;;8.93;2.40;;;12.10;99.90;;;;;;6204932;28;20052;-80
2022/10/23 00:21:21;;;;;;;12.65;2.15;;;12.10;99.90;;;;;;6204297;28;20054;-82
2022/10/23 00:24:24;;;;;;;8.32;1.75;;;12.00;99.90;;;;;;6205389;28;20049;-81
2022/10/23 00:27:26;;;;;;;9.80;1.95;;;12.00;99.90;;;;;;6204668;28;20054;-82
2022/10/23 00:30:27;;;;;;;9.48;2.75;;;12.00;99.90;;;;;;6205466;28;20058;-81
2022/10/23 00:33:29;;;;;;;11.25;2.53;;;12.00;99.90;;;;;;6203295;28;20421;-81
2022/10/23 00:36:31;;;;;;;8.50;2.10;;;11.90;99.90;;;;;;6202428;28;20050;-80
2022/10/23 00:39:34;;;;;;;5.65;2.10;;;11.90;99.90;;;;;;6204246;28;20046;-81
2022/10/23 00:42:36;;;;;;;6.65;3.65;;;11.90;99.90;;;;;;6205108;28;20061;-81
2022/10/23 00:45:37;;;;;;;5.00;2.45;;;11.90;99.90;;;;;;6203998;28;20535;-80
2022/10/23 00:48:39;;;;;;;6.55;2.55;;;11.80;99.90;;;;;;6204219;28;20030;-81
2022/10/23 00:51:45;;;;;;;9.82;2.92;;;11.80;99.90;;;;;;6203406;28;20053;-80
2022/10/23 00:54:48;;;;;;;17.23;3.45;;;11.80;99.90;;;;;;6203975;28;20050;-80
2022/10/23 00:57:51;;;;;;;9.27;5.13;;;11.80;99.90;;;;;;6196967;28;20046;-81
2022/10/23 01:00:55;;;;;;;6.03;3.22;;;11.80;99.90;;;;;;6179118;28;20047;-80
2022/10/23 01:03:58;;;;;;;4.60;2.95;;;11.80;99.90;;;;;;6180605;28;20416;-80
2022/10/23 01:07:07;;;;;;;9.15;3.50;;;11.80;99.90;;;;;;6180299;28;20058;-80
2022/10/23 01:10:16;;;;;;;11.02;2.90;;;11.80;99.90;;;;;;6178475;28;20046;-80
2022/10/23 01:13:27;;;;;;;9.38;2.35;;;11.70;99.90;;;;;;6178230;28;20058;-81
2022/10/23 01:16:36;;;;;;;11.30;4.18;;;11.70;99.90;;;;;;6179176;28;20050;-81
2022/10/23 01:19:55;;;;;;;12.48;3.35;;;11.70;99.90;;;;;;6178971;28;20065;-81
2022/10/23 01:23:12;;;;;;;5.75;2.75;;;11.70;99.90;;;;;;6178837;28;20732;-82
2022/10/23 01:26:30;;;;;;;8.68;2.55;;;11.60;99.90;;;;;;6178607;28;20429;-82
2022/10/23 01:29:39;;;;;;;10.82;3.80;;;11.60;99.90;;;;;;6178400;28;20043;-81
2022/10/23 01:32:46;;;;;;;3.92;2.65;;;11.60;99.90;;;;;;6179184;28;20050;-82
2022/10/23 01:35:52;;;;;;;12.70;2.80;;;11.60;99.90;;;;;;6179367;28;20054;-82
2022/10/23 01:38:58;;;;;;;12.52;2.90;;;11.60;99.90;;;;;;6179017;28;20062;-82
2022/10/23 01:42:06;;;;;;;15.68;3.38;;;11.60;99.90;;;;;;6179253;28;20043;-81
2022/10/23 01:45:13;;;;;;;13.15;2.67;;;11.60;99.90;;;;;;6186664;28;20059;-82
2022/10/23 01:48:19;;;;;;;3.83;2.20;;;11.60;99.90;;;;;;6186594;28;20057;-82
2022/10/23 01:51:24;;;;;;;18.67;3.60;;;11.60;99.90;;;;;;6187177;28;20050;-81
2022/10/23 01:54:31;;;;;;;8.98;2.55;;;11.60;99.90;;;;;;6186578;28;20046;-81
2022/10/23 01:57:34;;;;;;;7.30;2.55;;;11.50;99.90;;;;;;6185852;28;20090;-83
2022/10/23 02:00:39;;;;;;;18.65;2.72;;;11.60;99.90;;;;;;6190865;28;20042;-82
2022/10/23 02:03:43;;;;;;;8.73;2.70;;;11.60;99.90;;;;;;6210276;28;20070;-83
2022/10/23 02:06:44;;;;;;;13.82;4.82;;;11.60;99.90;;;;;;6211221;28;20046;-82
2022/10/23 02:09:46;;;;;;;9.05;2.80;;;11.60;99.90;;;;;;6210811;28;20050;-82
2022/10/23 02:12:54;;;;;;;12.70;2.70;;;11.70;99.90;;;;;;6210564;28;20061;-82
2022/10/23 02:16:05;;;;;;;11.77;2.75;;;11.70;99.90;;;;;;6211204;28;20053;-82
2022/10/23 02:19:14;;;;;;;14.30;3.08;;;11.70;99.90;;;;;;6211916;28;20053;-82
2022/10/23 02:22:21;;;;;;;10.50;2.38;;;11.70;99.90;;;;;;6213524;28;20054;-82
2022/10/23 02:25:31;;;;;;;13.20;3.03;;;11.80;99.90;;;;;;6213564;28;20496;-82
2022/10/23 02:28:39;;;;;;;6.63;2.08;;;11.80;99.90;;;;;;6213550;28;20049;-82
2022/10/23 02:31:42;;;;;;;6.60;2.90;;;11.80;99.90;;;;;;6215945;28;20046;-82
2022/10/23 02:34:44;;;;;;;6.60;3.00;;;11.80;99.90;;;;;;6209169;28;20058;-82
2022/10/23 02:37:53;;;;;;;7.13;2.72;;;11.80;99.90;;;;;;6208798;28;20050;-82
2022/10/23 02:41:02;;;;;;;11.98;2.45;;;11.80;99.90;;;;;;6209169;28;20061;-82
2022/10/23 02:44:17;;;;;;;2.67;1.95;;;11.90;99.90;;;;;;6208280;28;20415;-82
2022/10/23 02:47:35;;;;;;;14.35;2.33;;;12.00;99.90;;;;;;6208487;28;20109;-83
2022/10/23 02:50:49;;;;;;;8.07;2.40;;;12.00;99.90;;;;;;6208549;28;20050;-79
2022/10/23 02:54:02;;;;;;;10.07;2.33;;;12.00;99.90;;;;;;6208119;28;20047;-79
2022/10/23 02:57:09;;;;;;;5.20;2.08;;;12.10;99.90;;;;;;6203871;28;20050;-79
2022/10/23 03:00:14;;;;;;;9.98;2.78;;;12.10;99.90;;;;;;6195851;28;20051;-79
2022/10/23 03:03:22;;;;;;;6.13;2.38;;;12.10;99.90;;;;;;6201982;28;20058;-80
2022/10/23 03:06:24;;;;;;;9.48;2.90;;;12.00;99.90;;;;;;6204901;28;20219;-80
2022/10/23 03:09:27;;;;;;;11.50;3.25;;;12.10;99.90;;;;;;6204459;28;20058;-79
2022/10/23 03:12:28;;;;;;;6.13;2.00;;;12.10;99.90;;;;;;6204409;28;20046;-80
2022/10/23 03:15:30;;;;;;;6.95;2.53;;;12.20;99.90;;;;;;6206126;28;20515;-81
2022/10/23 03:18:33;;;;;;;4.43;2.30;;;12.20;99.90;;;;;;6215772;28;20053;-80
2022/10/23 03:21:35;;;;;;;6.95;2.22;;;12.30;99.90;;;;;;6205867;28;20046;-80
2022/10/23 03:24:36;;;;;;;10.05;2.15;;;12.30;99.90;;;;;;6205409;28;20050;-80
2022/10/23 03:27:38;;;;;;;10.68;1.92;;;12.30;99.90;;;;;;6205760;28;20050;-80
2022/10/23 03:30:40;;;;;;;5.63;2.30;;;12.40;99.90;;;;;;6205701;28;20061;-80
2022/10/23 03:33:43;;;;;;;9.82;3.72;;;12.40;99.90;;;;;;6204891;28;20046;-81
2022/10/23 03:36:44;;;;;;;13.70;2.00;;;12.50;99.90;;;;;;6204616;28;20530;-80
2022/10/23 03:39:46;;;;;;;4.80;2.22;;;12.60;99.90;;;;;;6204364;28;20046;-80
2022/10/23 03:42:48;;;;;;;11.00;2.40;;;12.60;99.90;;;;;;6204744;28;20463;-80
2022/10/23 03:45:50;;;;;;;6.70;2.70;;;12.60;99.90;;;;;;6204873;28;20053;-80
2022/10/23 03:48:54;;;;;;;12.65;3.40;;;12.70;99.90;;;;;;6203609;28;20052;-81
2022/10/23 03:51:55;;;;;;;4.90;2.35;;;12.70;99.90;;;;;;6204160;28;20421;-80
2022/10/23 03:54:57;;;;;;;9.20;3.13;;;12.80;99.90;;;;;;6204829;28;20078;-80
2022/10/23 03:57:59;;;;;;;9.48;2.28;;;12.80;99.90;;;;;;6203689;28;20509;-80
2022/10/23 04:01:01;;;;;;;12.90;1.98;;;12.80;99.90;;;;;;6198118;28;20058;-81
2022/10/23 04:04:04;;;;;;;8.30;4.63;;;12.80;99.90;;;;;;6200347;28;20058;-80
2022/10/23 04:07:06;;;;;;;6.30;2.03;;;12.70;99.90;;;;;;6202985;28;20057;-80
2022/10/23 04:10:08;;;;;;;4.32;1.33;;;12.70;99.90;;;;;;6203354;28;20050;-80
2022/10/23 04:13:10;;;;;;;6.28;2.00;;;12.70;99.90;;;;;;6203278;28;20420;-81
2022/10/23 04:16:12;;;;;;;17.27;5.97;;;12.80;99.90;;;;;;6203364;28;20053;-81
2022/10/23 04:19:16;;;;;;;5.68;1.55;;;12.90;99.90;;;;;;6202582;28;20046;-80
2022/10/23 04:22:17;;;;;;;8.48;1.92;;;12.90;99.90;;;;;;6203715;28;20788;-80
2022/10/23 04:25:19;;;;;;;12.68;2.53;;;12.90;99.90;;;;;;6203328;28;20049;-81
2022/10/23 04:28:20;;;;;;;8.38;1.52;;;13.00;99.90;;;;;;6202701;28;20407;-80
2022/10/23 04:31:22;;;;;;;5.95;2.40;;;13.00;99.90;;;;;;6202885;28;20057;-80
2022/10/23 04:34:25;;;;;;;7.90;3.95;;;13.10;99.90;;;;;;6202679;28;20053;-80
2022/10/23 04:37:27;;;;;;;5.28;1.75;;;13.10;99.90;;;;;;6202423;28;20397;-81
2022/10/23 04:40:29;;;;;;;5.53;1.25;;;13.30;99.90;;;;;;6203039;28;20054;-80
2022/10/23 04:43:30;;;;;;;3.08;1.83;;;13.20;99.90;;;;;;6202548;28;20058;-81
2022/10/23 04:46:32;;;;;;;10.45;1.60;;;13.20;99.90;;;;;;6203485;28;20069;-82
2022/10/23 04:49:35;;;;;;;4.60;2.70;;;13.30;99.90;;;;;;6202168;28;20057;-80
2022/10/23 04:52:37;;;;;;;8.65;1.88;;;13.30;99.90;;;;;;6203060;28;20424;-81
2022/10/23 04:55:38;;;;;;;5.85;1.48;;;13.40;99.90;;;;;;6203110;28;20671;-81
2022/10/23 04:58:40;;;;;;;8.32;1.23;;;13.40;99.90;;;;;;6203195;28;20054;-80
2022/10/23 05:01:42;;;;;;;4.00;1.55;;;13.40;99.90;;;;;;6197721;28;20050;-80
2022/10/23 05:04:45;;;;;;;4.63;1.80;;;13.30;99.90;;;;;;6201907;28;20042;-81
2022/10/23 05:07:47;;;;;;;7.43;1.83;;;13.10;99.90;;;;;;6202556;28;20053;-80
2022/10/23 05:10:49;;;;;;;4.43;1.48;;;13.00;99.90;;;;;;6203039;28;20053;-80
2022/10/23 05:13:51;;;;;;;8.07;1.42;;;12.70;99.90;;;;;;6203191;28;20050;-80
2022/10/23 05:16:57;;;;;;;5.90;1.60;;;12.50;99.90;;;;;;6202940;28;20112;-80
2022/10/23 05:20:03;;;;;;;5.82;1.52;;;12.50;99.90;;;;;;6201738;28;20579;-81
2022/10/23 05:23:08;;;;;;;5.43;1.38;;;12.50;99.90;;;;;;6204158;28;20050;-82
2022/10/23 05:26:10;;;;;;;9.30;1.40;;;12.50;99.90;;;;;;6203970;28;20046;-84
2022/10/23 05:29:12;;;;;;;14.68;3.17;;;12.50;99.90;;;;;;6203080;28;20050;-82
2022/10/23 05:32:15;;;;;;;6.75;1.58;;;12.60;99.90;;;;;;6204324;28;20057;-81
2022/10/23 05:35:22;;;;;;;5.25;1.58;;;12.60;99.90;;;;;;6203896;28;20050;-82
2022/10/23 05:38:26;;;;;;;7.63;2.13;;;12.60;99.90;;;;;;6203843;28;20057;-82
2022/10/23 05:41:27;;;;;;;10.93;2.15;;;12.50;99.90;;;;;;6206320;28;20046;-81
2022/10/23 05:44:29;;;;;;;5.20;1.40;;;12.40;99.90;;;;;;6202603;28;20050;-80
2022/10/23 05:47:31;;;;;;;2.80;1.40;;;12.30;99.90;;;;;;6202208;28;20050;-80
2022/10/23 05:50:37;;;;;;;8.95;1.92;;;12.20;99.90;;;;;;6202636;28;20054;-81
2022/10/23 05:53:39;;;;;;;3.90;1.67;;;12.20;99.90;;;;;;6201612;28;20057;-80
2022/10/23 05:56:41;;;;;;;13.68;1.80;;;12.20;99.90;;;;;;6201988;28;20049;-81
2022/10/23 05:59:43;;;;;;;7.93;1.95;;;12.10;99.90;;;;;;6202011;28;20046;-80
2022/10/23 06:02:44;;;;;;;9.32;1.67;;;12.00;99.90;;;;;;6199314;28;20058;-81
2022/10/23 06:05:50;;;;;;;5.93;1.70;;;12.00;99.90;;;;;;6190363;28;20042;-81
2022/10/23 06:08:52;;;;;;;13.73;2.22;;;11.80;99.90;;;;;;6201672;28;20064;-81
2022/10/23 06:11:54;;;;;;;7.28;2.08;;;11.80;99.90;;;;;;6201534;28;20509;-80
2022/10/23 06:14:55;;;;;;;4.45;2.67;;;11.80;99.90;;;;;;6202544;28;20054;-81
2022/10/23 06:18:01;;;;;;;6.40;2.00;;;11.80;99.90;;;;;;6200924;28;20046;-81
2022/10/23 06:21:04;;;;;;;6.88;2.10;;;11.80;99.90;;;;;;6202083;28;20139;-81
2022/10/23 06:24:06;;;;;;;11.30;2.15;;;11.90;99.90;;;;;;6202023;28;20051;-80
2022/10/23 06:27:08;;;;;;;6.15;2.38;;;12.00;99.90;;;;;;6201603;28;20046;-81
2022/10/23 06:30:11;;;;;;;9.88;2.58;;;12.10;99.90;;;;;;6202423;28;20069;-80
2022/10/23 06:33:12;;;;;;;17.80;2.75;;;12.20;99.90;;;;;;6205827;28;20046;-81
2022/10/23 06:36:15;;;;;;;12.80;2.50;;;12.30;99.90;;;;;;6205887;28;20437;-81
2022/10/23 06:39:17;;;;;;;7.32;2.05;;;12.40;99.90;;;;;;6211493;28;20057;-80
2022/10/23 06:42:19;;;;;;;8.05;2.00;;;12.50;99.90;;;;;;6218010;28;20607;-81
2022/10/23 06:45:20;;;;;;;3.95;2.30;;;12.60;99.90;;;;;;6207347;28;20054;-81
2022/10/23 06:48:22;;;;;;;7.55;3.90;;;12.70;99.90;;;;;;6206474;28;20051;-82
2022/10/23 06:51:28;;;;;;;7.85;3.80;;;12.80;99.90;;;;;;6206849;28;20058;-80
2022/10/23 06:54:30;;;;;;;7.80;3.70;;;13.00;99.90;;;;;;6207597;28;20054;-81
2022/10/23 06:57:31;;;;;;;14.77;3.63;;;13.10;99.90;;;;;;6206153;28;20050;-81
2022/10/23 07:00:33;;;;;;;17.75;10.50;;;13.30;99.90;;;;;;6206275;28;20234;-80
2022/10/23 07:03:35;;;;;;;9.35;3.10;;;13.40;99.90;;;;;;6202297;28;20051;-81
2022/10/23 07:06:38;;;;;;;7.53;2.97;;;13.50;99.90;;;;;;6195396;28;20046;-80
2022/10/23 07:09:40;;;;;;;9.05;2.08;;;13.60;99.90;;;;;;6206224;28;20050;-81
2022/10/23 07:12:42;;;;;;;11.52;4.05;;;13.70;99.90;;;;;;6205860;28;20053;-80
2022/10/23 07:15:44;;;;;;;8.60;4.03;;;13.90;99.90;;;;;;6205158;28;20129;-80
2022/10/23 07:18:47;;;;;;;6.95;2.47;;;14.10;99.90;;;;;;6180089;28;20050;-80
2022/10/23 07:21:51;;;;;;;4.68;2.55;;;14.30;99.90;;;;;;6218908;28;20054;-80
2022/10/23 07:24:53;;;;;;;6.78;2.22;;;14.40;99.90;;;;;;6229778;28;20046;-81
2022/10/23 07:27:55;;;;;;;9.48;2.92;;;14.70;99.90;;;;;;6216345;28;20512;-81
2022/10/23 07:30:57;;;;;;;9.65;2.25;;;14.80;99.90;;;;;;6208227;28;20050;-81
2022/10/23 07:33:59;;;;;;;4.38;2.22;;;15.00;99.90;;;;;;6204862;28;20050;-81
2022/10/23 07:37:02;;;;;;;11.50;2.47;;;15.10;99.90;;;;;;6205242;28;20054;-81
2022/10/23 07:40:04;;;;;;;2.53;1.50;;;15.20;99.90;;;;;;6204830;28;20046;-80
2022/10/23 07:43:06;;;;;;;8.55;2.05;;;15.30;99.90;;;;;;6205184;28;20046;-81
2022/10/23 07:46:09;;;;;;;10.57;3.33;;;15.40;99.90;;;;;;6204520;28;20508;-80
2022/10/23 07:49:11;;;;;;;8.68;1.92;;;15.50;99.90;;;;;;6204003;28;20104;-81
2022/10/23 07:52:14;;;;;;;7.38;2.30;;;15.60;99.90;;;;;;6215269;28;20054;-81
2022/10/23 07:55:16;;;;;;;8.95;3.00;;;15.80;99.90;;;;;;6230027;28;20054;-81
2022/10/23 07:58:18;;;;;;;7.78;3.22;;;16.10;99.90;;;;;;6228063;28;20050;-81
2022/10/23 08:01:25;;;;;;;12.00;2.25;;;16.50;99.90;;;;;;6228604;28;20045;-79
2022/10/23 08:04:27;;;;;;;13.73;3.03;;;16.90;99.90;;;;;;6225858;28;20057;-81
2022/10/23 08:07:30;;;;;;;16.38;5.15;;;17.30;99.90;;;;;;6187352;28;20054;-81
2022/10/23 08:10:32;;;;;;;7.90;2.13;;;17.60;99.90;;;;;;6181554;28;20050;-81
2022/10/23 08:13:33;;;;;;;9.70;2.90;;;17.90;99.90;;;;;;6180917;28;20162;-82
2022/10/23 08:16:38;;;;;;;11.73;3.47;;;18.20;99.90;;;;;;6180096;28;20420;-81
2022/10/23 08:19:45;;;;;;;9.63;3.20;;;18.60;99.90;;;;;;6186041;28;20062;-80
2022/10/23 08:22:48;;;;;;;6.72;3.05;;;18.70;99.90;;;;;;6220070;28;20585;-80
2022/10/23 08:25:49;;;;;;;6.50;2.72;;;19.20;99.90;;;;;;6229265;28;20053;-80
2022/10/23 08:28:51;;;;;;;17.15;11.10;;;19.40;99.90;;;;;;6228864;28;20054;-81
2022/10/23 08:31:54;;;;;;;10.73;5.43;;;19.70;99.90;;;;;;6229036;28;20050;-82
2022/10/23 08:34:56;;;;;;;17.15;7.53;;;20.10;99.90;;;;;;6229631;28;20056;-82
2022/10/23 08:37:59;;;;;;;7.80;3.13;;;20.50;99.90;;;;;;6228741;28;20057;-81
2022/10/23 08:41:01;;;;;;;5.72;3.15;;;20.90;99.90;;;;;;6231606;28;20054;-81
2022/10/23 08:44:09;;;;;;;5.15;1.38;;;21.30;99.90;;;;;;6231832;28;20108;-81
2022/10/23 08:47:15;;;;;;;;;;;21.90;99.30;;;;;;6232106;28;20046;-81
2022/10/23 08:50:25;;;;;;;5.05;1.85;;;22.40;99.00;;;;;;6226837;28;19925;-80
2022/10/23 08:53:32;;;;;;;6.15;2.95;;;22.80;97.60;;;;;;6218597;28;20057;-81
2022/10/23 08:56:37;;;;;;;5.38;1.50;;;23.10;96.40;;;;;;6227248;28;20397;-80
2022/10/23 08:59:46;;;;;;;6.05;1.52;;;23.30;95.80;;;;;;6203157;28;20046;-81
2022/10/23 09:02:50;;;;;;;5.15;1.73;;;23.50;94.90;;;;;;6203957;28;20057;-80
2022/10/23 09:06:06;;;;;;;3.30;1.45;;;23.40;94.40;;;;;;6200331;28;20043;-80
2022/10/23 09:09:24;;;;;;;6.68;1.65;;;23.30;93.90;;;;;;6199885;28;20512;-81
2022/10/23 09:12:28;;;;;;;;;;;23.00;94.10;;;;;;6203184;28;20660;-81
2022/10/23 09:15:34;;;;;;;5.18;1.30;;;23.00;95.00;;;;;;6203543;28;19929;-81
2022/10/23 09:18:37;;;;;;;5.32;1.58;;;22.80;94.50;;;;;;6204732;28;20633;-82
2022/10/23 09:21:39;;;;;;;4.35;1.20;;;22.80;94.40;;;;;;6210791;28;20053;-82
2022/10/23 09:24:43;;;;;;;4.05;1.13;;;22.80;94.00;;;;;;6223394;28;20049;-82
2022/10/23 09:27:48;;;;;;;4.07;0.98;;;22.90;93.80;;;;;;6227340;28;20045;-82
2022/10/23 09:30:50;;;;;;;2.53;0.95;;;23.20;93.30;;;;;;6227942;28;20129;-81
2022/10/23 09:33:56;;;;;;;6.30;1.83;;;23.50;92.80;;;;;;6227994;28;20042;-80
2022/10/23 09:37:00;;;;;;;7.35;1.48;;;23.70;92.30;;;;;;6226883;28;20073;-81
2022/10/23 09:40:15;;;;;;;2.85;1.20;;;24.20;91.60;;;;;;6215356;28;20053;-81
2022/10/23 09:43:22;;;;;;;3.15;1.50;;;24.50;90.80;;;;;;6213680;28;20054;-81
2022/10/23 09:46:23;;;;;;;3.70;1.20;;;24.80;90.20;;;;;;6227779;28;20038;-81
2022/10/23 09:49:26;;;;;;;4.00;0.80;;;25.10;89.50;;;;;;6221849;28;20039;-82
2022/10/23 09:52:32;;;;;;;35.53;16.45;;;25.40;88.10;;;;;;6220396;28;20044;-82
2022/10/23 09:55:35;;;;;;;70.93;31.95;;;25.80;86.80;;;;;;6208689;28;20049;-82
2022/10/23 09:58:51;;;;;;;6.25;2.63;;;26.10;85.00;;;;;;6212663;28;20050;-81
2022/10/23 10:01:55;;;;;;;5.30;1.38;;;26.30;83.70;;;;;;6210996;28;20061;-81
2022/10/23 10:04:57;;;;;;;5.47;0.85;;;26.70;82.40;;;;;;6218244;28;20053;-81
2022/10/23 10:08:03;;;;;;;1.25;0.40;;;26.80;80.40;;;;;;6220953;28;20042;-81
2022/10/23 10:11:13;;;;;;;3.60;0.80;;;26.80;78.40;;;;;;6225099;28;20048;-81
2022/10/23 10:14:35;;;;;;;6.63;0.85;;;26.60;78.00;;;;;;6223166;28;20046;-81
2022/10/23 10:17:52;;;;;;;4.35;0.75;;;26.60;77.30;;;;;;6226881;28;20034;-81
2022/10/23 10:21:02;;;;;;;4.18;0.73;;;26.60;76.60;;;;;;6207962;28;20061;-81
2022/10/23 10:24:08;;;;;;;1.42;0.50;;;26.60;75.80;;;;;;6228888;28;20061;-82
2022/10/23 10:27:27;;;;;;;2.63;0.75;;;26.50;74.70;;;;;;6205957;28;20058;-83
2022/10/23 10:30:36;;;;;;;0.85;0.32;;;26.50;74.50;;;;;;6229795;28;20665;-82
2022/10/23 10:33:48;;;;;;;1.80;0.50;;;26.80;73.70;;;;;;6213702;28;20050;-82
2022/10/23 10:36:55;;;;;;;1.05;0.70;;;27.10;73.30;;;;;;6213073;28;20062;-83
2022/10/23 10:40:03;;;;;;;1.35;0.60;;;27.00;72.40;;;;;;6214265;28;20054;-81
2022/10/23 10:43:34;;;;;;;2.42;0.60;;;26.80;72.30;;;;;;6213722;28;20061;-82
2022/10/23 10:46:41;;;;;;;6.93;0.50;;;26.70;72.80;;;;;;6217534;28;20547;-82
2022/10/23 10:49:49;;;;;;;3.97;0.68;;;26.70;72.30;;;;;;6215870;28;20057;-83
2022/10/23 10:52:56;;;;;;;1.10;0.80;;;26.60;72.40;;;;;;6224133;28;20070;-82
2022/10/23 10:56:00;;;;;;;3.80;0.45;;;26.70;72.30;;;;;;6213879;28;20042;-80
2022/10/23 10:59:12;;;;;;;4.72;0.75;;;26.70;72.20;;;;;;6210560;28;20054;-81
2022/10/23 11:02:25;;;;;;;8.77;1.17;;;26.50;72.00;;;;;;6208347;28;20046;-81
2022/10/23 11:05:32;;;;;;;2.97;0.60;;;26.50;71.80;;;;;;6212506;28;20052;-81
2022/10/23 11:08:36;;;;;;;0.60;0.35;;;26.40;71.60;;;;;;6205894;28;20042;-82
2022/10/23 11:11:40;;;;;;;1.00;0.50;;;26.20;71.80;;;;;;6210356;28;20053;-82
2022/10/23 11:14:44;;;;;;;5.60;0.80;;;26.00;72.60;;;;;;6232015;28;20057;-83
2022/10/23 11:17:48;;;;;;;3.70;0.70;;;25.90;73.70;;;;;;6228019;28;20046;-81
2022/10/23 11:20:59;;;;;;;1.55;0.55;;;25.80;73.40;;;;;;6223466;28;20048;-81
2022/10/23 11:24:20;;;;;;;3.92;1.00;;;25.90;73.60;;;;;;6215124;28;20053;-81
2022/10/23 11:27:34;;;;;;;3.50;0.60;;;25.80;73.70;;;;;;6228852;28;20408;-80
2022/10/23 11:30:48;;;;;;;5.65;0.60;;;25.90;73.70;;;;;;6217823;28;20046;-81
2022/10/23 11:34:38;;;;;;;1.80;0.30;;;26.00;73.90;;;;;;6205471;28;20043;-80
2022/10/23 11:37:39;;;;;;;;;;;26.20;73.80;;;;;;6203944;28;20492;-81
2022/10/23 11:40:44;;;;;;;2.63;0.80;;;26.60;74.10;;;;;;6204841;28;19969;-82
2022/10/23 11:43:51;;;;;;;4.05;0.60;;;26.90;72.70;;;;;;6204790;28;20050;-81
2022/10/23 11:47:02;;;;;;;2.50;0.45;;;27.10;71.90;;;;;;6204716;28;20050;-82
2022/10/23 11:50:16;;;;;;;4.47;2.00;;;27.20;71.50;;;;;;6206203;28;20053;-80
2022/10/23 11:53:37;;;;;;;1.48;0.70;;;27.30;71.10;;;;;;6219254;28;20053;-81
2022/10/23 11:56:52;;;;;;;3.92;1.15;;;27.30;70.90;;;;;;6229163;28;20042;-82
2022/10/23 11:59:56;;;;;;;6.10;0.65;;;27.20;70.50;;;;;;6228506;28;20050;-82
2022/10/23 12:03:01;;;;;;;2.85;0.60;;;27.30;70.00;;;;;;6229542;28;20508;-81
2022/10/23 12:06:05;;;;;;;1.20;0.50;;;27.30;69.40;;;;;;6229246;28;20069;-82
2022/10/23 12:09:19;;;;;;;2.97;0.70;;;27.00;69.30;;;;;;6221579;28;20050;-80
2022/10/23 12:12:29;;;;;;;2.92;0.47;;;27.10;69.10;;;;;;6211325;28;20038;-80
2022/10/23 12:15:33;;;;;;;1.50;0.80;;;27.30;68.90;;;;;;6214617;28;20147;-81
2022/10/23 12:18:47;;;;;;;4.22;0.75;;;27.50;68.40;;;;;;6206424;28;20366;-81
2022/10/23 12:21:51;;;;;;;3.35;0.60;;;27.70;68.20;;;;;;6214462;28;20057;-83
2022/10/23 12:25:00;;;;;;;1.15;0.60;;;27.90;67.50;;;;;;6206797;28;20054;-81
2022/10/23 12:28:08;;;;;;;0.65;0.45;;;27.80;67.10;;;;;;6205066;28;20050;-81
2022/10/23 12:31:17;;;;;;;;;;;27.70;67.00;;;;;;6207301;28;20050;-81
2022/10/23 12:34:30;;;;;;;3.10;0.73;;;27.60;67.80;;;;;;6204989;28;19922;-82
2022/10/23 12:37:50;;;;;;;4.63;0.43;;;27.60;67.20;;;;;;6205611;28;20053;-81
2022/10/23 12:40:54;;;;;;;0.80;0.32;;;27.50;67.20;;;;;;6204594;28;20050;-82
2022/10/23 12:44:00;;;;;;;7.35;0.50;;;27.40;67.00;;;;;;6205358;28;20053;-81
2022/10/23 12:47:03;;;;;;;1.65;0.60;;;27.30;67.00;;;;;;6205671;28;20058;-81
2022/10/23 12:50:17;;;;;;;8.05;1.20;;;27.20;67.20;;;;;;6206120;28;20046;-82
2022/10/23 12:53:21;;;;;;;0.93;0.55;;;27.10;67.10;;;;;;6222456;28;20053;-81
2022/10/23 12:56:24;;;;;;;4.07;1.20;;;26.90;67.00;;;;;;6232333;28;20073;-81
2022/10/23 12:59:36;;;;;;;8.18;0.77;;;26.80;67.70;;;;;;6229224;28;20061;-81
2022/10/23 13:02:38;;;;;;;1.45;0.43;;;27.00;67.70;;;;;;6229230;28;20056;-81
2022/10/23 13:05:41;;;;;;;1.00;0.40;;;27.20;67.80;;;;;;6228541;28;20424;-82
2022/10/23 13:08:45;;;;;;;0.95;0.40;;;27.40;67.40;;;;;;6228024;28;20053;-81
2022/10/23 13:11:48;;;;;;;36.47;16.70;;;27.30;67.30;;;;;;6213361;28;20057;-81
2022/10/23 13:14:59;;;;;;;4.95;2.42;;;27.40;67.90;;;;;;6227910;28;20426;-82
2022/10/23 13:18:03;;;;;;;4.95;2.65;;;27.50;67.50;;;;;;6228280;28;20046;-82
2022/10/23 13:21:16;;;;;;;3.28;2.10;;;27.70;66.90;;;;;;6231754;28;20046;-81
2022/10/23 13:24:21;;;;;;;2.95;0.70;;;27.30;67.00;;;;;;6224200;28;20131;-82
2022/10/23 13:27:31;;;;;;;6.32;0.90;;;27.30;67.60;;;;;;6229518;28;20063;-82
2022/10/23 13:30:36;;;;;;;8.02;0.65;;;27.30;67.30;;;;;;6229929;28;20465;-81
2022/10/23 13:33:40;;;;;;;1.42;0.60;;;27.20;67.10;;;;;;6230199;28;20526;-82
2022/10/23 13:36:58;;;;;;;1.23;0.50;;;27.00;67.50;;;;;;6229180;28;20050;-82
2022/10/23 13:40:01;;;;;;;1.40;0.55;;;27.00;68.00;;;;;;6227470;28;20415;-82
2022/10/23 13:43:14;;;;;;;3.08;1.00;;;27.10;68.10;;;;;;6228901;28;20058;-82
2022/10/23 13:46:17;;;;;;;7.85;0.82;;;27.00;67.90;;;;;;6228522;28;20052;-82
2022/10/23 13:49:19;;;;;;;7.55;5.07;;;27.00;68.00;;;;;;6226400;28;20050;-82
2022/10/23 13:52:23;;;;;;;2.55;1.63;;;26.80;68.30;;;;;;6215052;28;20045;-82
2022/10/23 13:55:27;;;;;;;9.77;2.50;;;26.60;68.70;;;;;;6228451;28;20061;-82
2022/10/23 13:58:28;;;;;;;3.60;0.82;;;26.30;69.10;;;;;;6228928;28;20073;-82
2022/10/23 14:01:34;;;;;;;6.07;1.02;;;26.10;69.80;;;;;;6220016;28;20053;-82
2022/10/23 14:04:36;;;;;;;2.42;0.75;;;25.90;70.60;;;;;;6218975;28;20050;-82
2022/10/23 14:07:39;;;;;;;2.58;0.85;;;25.70;71.00;;;;;;6227838;28;20042;-81
2022/10/23 14:10:41;;;;;;;3.42;0.90;;;25.50;71.80;;;;;;6224626;28;20061;-82
2022/10/23 14:13:42;;;;;;;1.17;0.60;;;25.30;72.30;;;;;;6186390;28;20050;-82
2022/10/23 14:16:44;;;;;;;2.03;0.75;;;25.10;72.80;;;;;;6180060;28;20051;-82
2022/10/23 14:19:46;;;;;;;6.97;0.73;;;24.90;73.60;;;;;;6178997;28;20047;-82
2022/10/23 14:22:49;;;;;;;1.38;0.57;;;24.70;74.60;;;;;;6217530;28;20504;-82
2022/10/23 14:25:50;;;;;;;2.33;0.90;;;24.60;76.10;;;;;;6228270;28;20042;-82
2022/10/23 14:28:53;;;;;;;7.85;0.90;;;24.50;77.10;;;;;;6228491;28;20046;-83
2022/10/23 14:31:55;;;;;;;2.90;1.30;;;24.40;77.90;;;;;;6227167;28;20449;-82
2022/10/23 14:34:57;;;;;;;3.83;0.80;;;24.30;78.40;;;;;;6227908;28;20072;-82
2022/10/23 14:38:00;;;;;;;7.43;0.80;;;24.30;79.10;;;;;;6227018;28;20045;-82
2022/10/23 14:41:02;;;;;;;4.25;0.77;;;24.20;79.60;;;;;;6227643;28;20049;-82
2022/10/23 14:44:03;;;;;;;8.95;0.98;;;24.10;80.20;;;;;;6227736;28;20054;-82
2022/10/23 14:47:06;;;;;;;2.85;0.73;;;24.00;81.40;;;;;;6227319;28;20052;-82
2022/10/23 14:50:10;;;;;;;10.55;0.80;;;23.80;82.10;;;;;;6219757;28;20047;-82
2022/10/23 14:53:13;;;;;;;8.63;1.13;;;23.70;82.90;;;;;;6223530;28;20046;-83
2022/10/23 14:56:15;;;;;;;10.10;2.53;;;23.50;83.70;;;;;;6231990;28;20427;-83
2022/10/23 14:59:17;;;;;;;4.22;0.73;;;23.40;84.20;;;;;;6232710;28;20041;-83
2022/10/23 15:02:18;;;;;;;2.40;0.65;;;23.30;84.80;;;;;;6231972;28;20045;-82
2022/10/23 15:05:20;;;;;;;4.03;0.85;;;23.20;85.40;;;;;;6232929;28;20064;-83
2022/10/23 15:08:23;;;;;;;2.45;0.80;;;23.00;86.10;;;;;;6231102;28;20041;-82
2022/10/23 15:11:26;;;;;;;9.70;0.90;;;22.90;86.80;;;;;;6211843;28;20050;-82
2022/10/23 15:14:28;;;;;;;5.03;0.77;;;22.80;87.30;;;;;;6194065;28;20053;-81
2022/10/23 15:17:32;;;;;;;6.63;0.85;;;22.80;87.80;;;;;;6182219;28;20038;-83
2022/10/23 15:20:34;;;;;;;6.82;0.70;;;22.70;88.50;;;;;;6200186;28;20050;-82
2022/10/23 15:23:39;;;;;;;3.70;1.08;;;22.60;89.20;;;;;;6219381;28;20060;-83
2022/10/23 15:26:42;;;;;;;5.85;1.27;;;22.60;89.50;;;;;;6233822;28;20061;-82
2022/10/23 15:29:43;;;;;;;17.35;3.80;;;22.70;89.80;;;;;;6233659;28;20065;-82
2022/10/23 15:32:45;;;;;;;13.25;5.60;;;22.70;90.00;;;;;;6211931;28;20047;-82
2022/10/23 15:35:47;;;;;;;4.50;3.05;;;22.70;90.00;;;;;;6211111;28;20046;-83
2022/10/23 15:38:51;;;;;;;2.60;1.20;;;22.60;90.00;;;;;;6205504;28;20408;-82
2022/10/23 15:41:55;;;;;;;1.95;0.88;;;22.50;90.00;;;;;;6205378;28;20043;-82
2022/10/23 15:44:56;;;;;;;7.03;0.80;;;22.30;90.20;;;;;;6206120;28;20431;-82
2022/10/23 15:47:58;;;;;;;3.95;1.38;;;22.10;90.50;;;;;;6204911;28;20050;-81
2022/10/23 15:51:00;;;;;;;5.85;1.92;;;21.90;90.80;;;;;;6209115;28;20050;-82
2022/10/23 15:54:04;;;;;;;5.40;1.45;;;21.70;91.30;;;;;;6222554;28;20508;-82
2022/10/23 15:57:05;;;;;;;3.15;0.98;;;21.60;91.70;;;;;;6229650;28;20125;-82
2022/10/23 16:00:09;;;;;;;4.25;1.10;;;21.40;91.90;;;;;;6229281;28;20050;-82